createdAt,value
2017-12-22T00:00:36.149Z,973.03
2017-12-22T00:01:36.155Z,973.07
2017-12-22T00:02:36.153Z,973.08
2017-12-22T00:03:36.154Z,973.08
2017-12-22T00:04:36.158Z,973.06
2017-12-22T00:05:36.160Z,973.04
2017-12-22T00:06:36.164Z,973.03
2017-12-22T00:07:36.165Z,973.02
2017-12-22T00:08:36.169Z,973.00
2017-12-22T00:09:36.177Z,973.00
2017-12-22T00:10:36.180Z,972.98
2017-12-22T00:11:36.176Z,973.00
2017-12-22T00:12:36.182Z,972.96
2017-12-22T00:13:36.180Z,972.98
2017-12-22T00:14:36.184Z,972.95
2017-12-22T00:15:36.186Z,972.89
2017-12-22T00:16:36.195Z,972.91
2017-12-22T00:17:36.197Z,972.92
2017-12-22T00:18:36.195Z,972.90
2017-12-22T00:19:36.195Z,972.86
2017-12-22T00:20:36.197Z,972.90
2017-12-22T00:21:36.201Z,972.86
2017-12-22T00:22:36.203Z,972.87
2017-12-22T00:23:36.205Z,972.85
2017-12-22T00:24:36.208Z,972.84
2017-12-22T00:25:36.210Z,972.83
2017-12-22T00:26:36.212Z,972.84
2017-12-22T00:27:36.215Z,972.85
2017-12-22T00:28:36.218Z,972.84
2017-12-22T00:29:36.219Z,972.80
2017-12-22T00:30:36.222Z,972.82
2017-12-22T00:31:36.224Z,972.81
2017-12-22T00:32:36.230Z,972.81
2017-12-22T00:33:36.229Z,972.83
2017-12-22T00:34:36.231Z,972.83
2017-12-22T00:35:36.233Z,972.85
2017-12-22T00:36:36.236Z,972.83
2017-12-22T00:37:36.238Z,972.81
2017-12-22T00:38:36.256Z,972.83
2017-12-22T00:39:36.243Z,972.85
2017-12-22T00:40:36.249Z,972.83
2017-12-22T00:41:36.250Z,972.86
2017-12-22T00:42:36.251Z,972.81
2017-12-22T00:43:36.252Z,972.83
2017-12-22T00:44:36.256Z,972.79
2017-12-22T00:45:36.262Z,972.77
2017-12-22T00:46:36.258Z,972.76
2017-12-22T00:47:36.260Z,972.77
2017-12-22T00:48:36.263Z,972.76
2017-12-22T00:49:36.266Z,972.73
2017-12-22T00:50:36.268Z,972.75
2017-12-22T00:51:36.269Z,972.70
2017-12-22T00:52:36.273Z,972.71
2017-12-22T00:53:36.275Z,972.71
2017-12-22T00:54:36.277Z,972.68
2017-12-22T00:55:36.279Z,972.66
2017-12-22T00:56:36.282Z,972.63
2017-12-22T00:57:36.284Z,972.63
2017-12-22T00:58:36.293Z,972.59
2017-12-22T00:59:36.289Z,972.62
2017-12-22T01:00:36.291Z,972.54
2017-12-22T01:01:36.293Z,972.60
2017-12-22T01:02:36.299Z,972.63
2017-12-22T01:03:36.299Z,972.59
2017-12-22T01:04:36.300Z,972.58
2017-12-22T01:05:36.302Z,972.57
2017-12-22T01:06:36.305Z,972.56
2017-12-22T01:07:36.306Z,972.50
2017-12-22T01:08:36.309Z,972.53
2017-12-22T01:09:36.311Z,972.53
2017-12-22T01:10:36.315Z,972.53
2017-12-22T01:11:36.323Z,972.50
2017-12-22T01:12:36.324Z,972.52
2017-12-22T01:13:36.327Z,972.50
2017-12-22T01:14:36.327Z,972.52
2017-12-22T01:15:36.327Z,972.49
2017-12-22T01:16:36.330Z,972.48
2017-12-22T01:17:36.330Z,972.48
2017-12-22T01:18:36.333Z,972.45
2017-12-22T01:19:36.337Z,972.47
2017-12-22T01:20:36.336Z,972.51
2017-12-22T01:21:36.342Z,972.52
2017-12-22T01:22:36.342Z,972.49
2017-12-22T01:23:36.343Z,972.46
2017-12-22T01:24:36.346Z,972.50
2017-12-22T01:25:36.349Z,972.49
2017-12-22T01:26:36.352Z,972.48
2017-12-22T01:27:36.352Z,972.47
2017-12-22T01:28:36.354Z,972.47
2017-12-22T01:29:36.358Z,972.48
2017-12-22T01:30:36.360Z,972.44
2017-12-22T01:31:36.361Z,972.46
2017-12-22T01:32:36.364Z,972.41
2017-12-22T01:33:36.367Z,972.41
2017-12-22T01:34:36.368Z,972.42
2017-12-22T01:35:36.370Z,972.41
2017-12-22T01:36:36.373Z,972.39
2017-12-22T01:37:36.376Z,972.39
2017-12-22T01:38:36.378Z,972.40
2017-12-22T01:39:36.380Z,972.38
2017-12-22T01:40:36.382Z,972.36
2017-12-22T01:41:36.385Z,972.33
2017-12-22T01:42:36.387Z,972.31
2017-12-22T01:43:36.388Z,972.34
2017-12-22T01:44:36.390Z,972.31
2017-12-22T01:45:36.396Z,972.30
2017-12-22T01:46:36.396Z,972.28
2017-12-22T01:47:36.400Z,972.26
2017-12-22T01:48:36.401Z,972.25
2017-12-22T01:49:36.412Z,972.23
2017-12-22T01:50:36.411Z,972.23
2017-12-22T01:51:36.408Z,972.24
2017-12-22T01:52:36.409Z,972.24
2017-12-22T01:53:36.411Z,972.24
2017-12-22T01:54:36.414Z,972.22
2017-12-22T01:55:36.416Z,972.21
2017-12-22T01:56:36.417Z,972.23
2017-12-22T01:57:36.420Z,972.19
2017-12-22T01:58:36.423Z,972.18
2017-12-22T01:59:36.424Z,972.21
2017-12-22T02:00:36.427Z,972.15
2017-12-22T02:01:36.429Z,972.12
2017-12-22T02:02:36.431Z,972.12
2017-12-22T02:03:36.433Z,972.14
2017-12-22T02:04:36.439Z,972.15
2017-12-22T02:05:36.438Z,972.15
2017-12-22T02:06:36.446Z,972.14
2017-12-22T02:07:36.442Z,972.12
2017-12-22T02:08:36.444Z,972.11
2017-12-22T02:09:36.447Z,972.13
2017-12-22T02:10:36.449Z,972.14
2017-12-22T02:11:36.450Z,972.10
2017-12-22T02:12:36.454Z,972.13
2017-12-22T02:13:36.455Z,972.08
2017-12-22T02:14:36.458Z,972.08
2017-12-22T02:15:36.459Z,972.05
2017-12-22T02:16:36.462Z,972.06
2017-12-22T02:17:36.468Z,972.07
2017-12-22T02:18:36.466Z,972.07
2017-12-22T02:19:36.469Z,972.01
2017-12-22T02:20:36.471Z,972.02
2017-12-22T02:21:36.481Z,972.08
2017-12-22T02:22:36.476Z,972.05
2017-12-22T02:23:36.481Z,972.00
2017-12-22T02:24:36.488Z,972.07
2017-12-22T02:25:36.483Z,972.05
2017-12-22T02:26:36.486Z,972.04
2017-12-22T02:27:36.488Z,972.07
2017-12-22T02:28:36.490Z,972.06
2017-12-22T02:29:36.492Z,971.98
2017-12-22T02:30:36.495Z,971.97
2017-12-22T02:31:36.498Z,971.94
2017-12-22T02:32:36.498Z,971.94
2017-12-22T02:33:36.500Z,971.96
2017-12-22T02:34:36.504Z,971.93
2017-12-22T02:35:36.504Z,971.95
2017-12-22T02:36:36.506Z,971.95
2017-12-22T02:37:36.509Z,971.92
2017-12-22T02:38:36.511Z,971.90
2017-12-22T02:39:36.513Z,971.90
2017-12-22T02:40:36.516Z,971.86
2017-12-22T02:41:36.518Z,971.83
2017-12-22T02:42:36.520Z,971.85
2017-12-22T02:43:36.522Z,971.86
2017-12-22T02:44:36.524Z,971.88
2017-12-22T02:45:36.527Z,971.86
2017-12-22T02:46:36.529Z,971.83
2017-12-22T02:47:36.533Z,971.77
2017-12-22T02:48:36.535Z,971.80
2017-12-22T02:49:36.536Z,971.80
2017-12-22T02:50:36.540Z,971.81
2017-12-22T02:51:36.538Z,971.79
2017-12-22T02:52:36.541Z,971.79
2017-12-22T02:53:36.544Z,971.75
2017-12-22T02:54:36.549Z,971.76
2017-12-22T02:55:36.547Z,971.77
2017-12-22T02:56:36.551Z,971.74
2017-12-22T02:57:36.564Z,971.74
2017-12-22T02:58:36.558Z,971.74
2017-12-22T02:59:36.556Z,971.76
2017-12-22T03:00:36.559Z,971.76
2017-12-22T03:01:36.567Z,971.79
2017-12-22T03:02:36.563Z,971.74
2017-12-22T03:03:36.564Z,971.78
2017-12-22T03:04:36.567Z,971.75
2017-12-22T03:05:36.570Z,971.76
2017-12-22T03:06:36.573Z,971.76
2017-12-22T03:07:36.574Z,971.76
2017-12-22T03:08:36.585Z,971.77
2017-12-22T03:09:36.578Z,971.76
2017-12-22T03:10:36.580Z,971.72
2017-12-22T03:11:36.583Z,971.67
2017-12-22T03:12:36.589Z,971.71
2017-12-22T03:13:36.587Z,971.68
2017-12-22T03:14:36.590Z,971.73
2017-12-22T03:15:36.591Z,971.72
2017-12-22T03:16:36.593Z,971.76
2017-12-22T03:17:36.595Z,971.72
2017-12-22T03:18:36.597Z,971.75
2017-12-22T03:19:36.599Z,971.73
2017-12-22T03:20:36.604Z,971.70
2017-12-22T03:21:36.611Z,971.73
2017-12-22T03:22:36.606Z,971.72
2017-12-22T03:23:36.614Z,971.65
2017-12-22T03:24:36.611Z,971.66
2017-12-22T03:25:36.612Z,971.67
2017-12-22T03:26:36.615Z,971.65
2017-12-22T03:27:36.649Z,971.63
2017-12-22T03:28:36.621Z,971.63
2017-12-22T03:29:36.632Z,971.62
2017-12-22T03:30:36.634Z,971.62
2017-12-22T03:31:36.627Z,971.62
2017-12-22T03:32:36.629Z,971.62
2017-12-22T03:33:36.631Z,971.63
2017-12-22T03:34:36.641Z,971.65
2017-12-22T03:35:36.637Z,971.68
2017-12-22T03:36:36.637Z,971.71
2017-12-22T03:37:36.639Z,971.68
2017-12-22T03:38:36.641Z,971.68
2017-12-22T03:39:36.644Z,971.67
2017-12-22T03:40:36.646Z,971.70
2017-12-22T03:41:36.648Z,971.70
2017-12-22T03:42:36.650Z,971.72
2017-12-22T03:43:36.651Z,971.70
2017-12-22T03:44:36.655Z,971.71
2017-12-22T03:45:36.656Z,971.71
2017-12-22T03:46:36.660Z,971.70
2017-12-22T03:47:36.660Z,971.70
2017-12-22T03:48:36.663Z,971.70
2017-12-22T03:49:36.665Z,971.74
2017-12-22T03:50:36.668Z,971.73
2017-12-22T03:51:36.668Z,971.72
2017-12-22T03:52:36.672Z,971.74
2017-12-22T03:53:36.674Z,971.74
2017-12-22T03:54:36.675Z,971.76
2017-12-22T03:55:36.677Z,971.74
2017-12-22T03:56:36.679Z,971.74
2017-12-22T03:57:36.683Z,971.72
2017-12-22T03:58:36.687Z,971.72
2017-12-22T03:59:36.685Z,971.75
2017-12-22T04:00:36.690Z,971.75
2017-12-22T04:01:36.690Z,971.76
2017-12-22T04:02:36.695Z,971.75
2017-12-22T04:03:36.696Z,971.74
2017-12-22T04:04:36.698Z,971.71
2017-12-22T04:05:36.699Z,971.75
2017-12-22T04:06:36.701Z,971.80
2017-12-22T04:07:36.706Z,971.74
2017-12-22T04:08:36.705Z,971.74
2017-12-22T04:09:36.706Z,971.76
2017-12-22T04:10:36.710Z,971.72
2017-12-22T04:11:36.719Z,971.67
2017-12-22T04:12:36.716Z,971.66
2017-12-22T04:13:36.716Z,971.64
2017-12-22T04:14:36.718Z,971.65
2017-12-22T04:15:36.720Z,971.69
2017-12-22T04:16:36.723Z,971.63
2017-12-22T04:17:36.725Z,971.62
2017-12-22T04:18:36.735Z,971.61
2017-12-22T04:19:36.729Z,971.64
2017-12-22T04:20:36.732Z,971.62
2017-12-22T04:21:36.734Z,971.66
2017-12-22T04:22:36.736Z,971.65
2017-12-22T04:23:36.738Z,971.67
2017-12-22T04:24:36.741Z,971.68
2017-12-22T04:25:36.743Z,971.66
2017-12-22T04:26:36.746Z,971.68
2017-12-22T04:27:36.747Z,971.64
2017-12-22T04:28:36.749Z,971.68
2017-12-22T04:29:36.754Z,971.66
2017-12-22T04:30:36.755Z,971.67
2017-12-22T04:31:36.757Z,971.65
2017-12-22T04:32:36.760Z,971.66
2017-12-22T04:33:36.763Z,971.62
2017-12-22T04:34:36.764Z,971.61
2017-12-22T04:35:36.769Z,971.58
2017-12-22T04:36:36.769Z,971.60
2017-12-22T04:37:36.772Z,971.62
2017-12-22T04:38:36.774Z,971.60
2017-12-22T04:39:36.777Z,971.59
2017-12-22T04:40:36.778Z,971.58
2017-12-22T04:41:36.781Z,971.54
2017-12-22T04:42:36.784Z,971.56
2017-12-22T04:43:36.785Z,971.54
2017-12-22T04:44:36.788Z,971.53
2017-12-22T04:45:36.791Z,971.52
2017-12-22T04:46:36.794Z,971.57
2017-12-22T04:47:36.795Z,971.51
2017-12-22T04:48:36.798Z,971.52
2017-12-22T04:49:36.801Z,971.51
2017-12-22T04:50:36.804Z,971.49
2017-12-22T04:51:36.809Z,971.50
2017-12-22T04:52:36.809Z,971.49
2017-12-22T04:53:36.811Z,971.49
2017-12-22T04:54:36.819Z,971.47
2017-12-22T04:55:36.822Z,971.44
2017-12-22T04:56:36.822Z,971.47
2017-12-22T04:57:36.824Z,971.45
2017-12-22T04:58:36.837Z,971.43
2017-12-22T04:59:36.826Z,971.43
2017-12-22T05:00:36.831Z,971.39
2017-12-22T05:01:36.859Z,971.42
2017-12-22T05:02:36.835Z,971.42
2017-12-22T05:03:36.837Z,971.44
2017-12-22T05:04:36.840Z,971.44
2017-12-22T05:05:36.842Z,971.42
2017-12-22T05:06:36.846Z,971.43
2017-12-22T05:07:36.850Z,971.44
2017-12-22T05:08:36.850Z,971.43
2017-12-22T05:09:36.853Z,971.41
2017-12-22T05:10:36.857Z,971.53
2017-12-22T05:11:36.857Z,971.30
2017-12-22T05:12:36.861Z,971.02
2017-12-22T05:13:36.873Z,971.05
2017-12-22T05:14:36.866Z,971.08
2017-12-22T05:15:36.869Z,971.10
2017-12-22T05:16:36.881Z,971.14
2017-12-22T05:17:36.882Z,971.14
2017-12-22T05:18:36.878Z,971.24
2017-12-22T05:19:36.879Z,971.16
2017-12-22T05:20:36.883Z,971.18
2017-12-22T05:21:36.892Z,971.24
2017-12-22T05:22:36.893Z,971.15
2017-12-22T05:23:36.895Z,971.26
2017-12-22T05:24:36.897Z,971.20
2017-12-22T05:25:36.901Z,971.18
2017-12-22T05:26:36.902Z,971.15
2017-12-22T05:27:36.907Z,971.12
2017-12-22T05:28:36.908Z,971.12
2017-12-22T05:29:36.912Z,971.14
2017-12-22T05:30:36.915Z,971.14
2017-12-22T05:31:36.915Z,971.15
2017-12-22T05:32:36.920Z,971.19
2017-12-22T05:33:36.923Z,971.15
2017-12-22T05:34:36.933Z,971.20
2017-12-22T05:35:36.929Z,971.22
2017-12-22T05:36:36.932Z,971.18
2017-12-22T05:37:36.935Z,971.22
2017-12-22T05:38:36.939Z,971.10
2017-12-22T05:39:36.941Z,971.07
2017-12-22T05:40:36.944Z,971.06
2017-12-22T05:41:36.948Z,971.07
2017-12-22T05:42:36.951Z,971.06
2017-12-22T05:43:36.955Z,971.05
2017-12-22T05:44:36.956Z,971.07
2017-12-22T05:45:36.978Z,971.10
2017-12-22T05:46:36.969Z,971.06
2017-12-22T05:47:36.971Z,971.05
2017-12-22T05:48:36.971Z,971.06
2017-12-22T05:49:36.973Z,971.05
2017-12-22T05:50:36.977Z,971.01
2017-12-22T05:51:36.979Z,970.98
2017-12-22T05:52:36.982Z,970.99
2017-12-22T05:53:36.986Z,971.00
2017-12-22T05:54:37.003Z,971.00
2017-12-22T05:55:36.992Z,971.03
2017-12-22T05:56:36.995Z,971.05
2017-12-22T05:57:36.999Z,971.05
2017-12-22T05:58:37.002Z,971.06
2017-12-22T05:59:37.004Z,971.07
2017-12-22T06:00:37.006Z,971.06
2017-12-22T06:01:37.010Z,971.07
2017-12-22T06:02:37.014Z,971.15
2017-12-22T06:03:37.018Z,971.12
2017-12-22T06:04:37.020Z,971.16
2017-12-22T06:05:37.025Z,971.39
2017-12-22T06:06:37.027Z,971.41
2017-12-22T06:07:37.030Z,971.39
2017-12-22T06:08:37.033Z,971.41
2017-12-22T06:09:37.036Z,971.41
2017-12-22T06:10:37.041Z,971.46
2017-12-22T06:11:37.042Z,971.40
2017-12-22T06:12:37.045Z,971.43
2017-12-22T06:13:37.051Z,971.42
2017-12-22T06:14:37.051Z,971.43
2017-12-22T06:15:37.057Z,971.44
2017-12-22T06:16:37.056Z,971.47
2017-12-22T06:17:37.058Z,971.47
2017-12-22T06:18:37.060Z,971.47
2017-12-22T06:19:37.062Z,971.48
2017-12-22T06:20:37.064Z,971.48
2017-12-22T06:21:37.067Z,971.44
2017-12-22T06:22:37.069Z,971.43
2017-12-22T06:23:37.080Z,971.46
2017-12-22T06:24:37.074Z,971.46
2017-12-22T06:25:37.076Z,971.44
2017-12-22T06:26:37.078Z,971.47
2017-12-22T06:27:37.079Z,971.45
2017-12-22T06:28:37.080Z,971.49
2017-12-22T06:29:37.084Z,971.45
2017-12-22T06:30:37.086Z,971.42
2017-12-22T06:31:37.089Z,971.43
2017-12-22T06:32:37.091Z,971.45
2017-12-22T06:33:37.093Z,971.44
2017-12-22T06:34:37.095Z,971.48
2017-12-22T06:35:37.096Z,971.49
2017-12-22T06:36:37.100Z,971.46
2017-12-22T06:37:37.100Z,971.49
2017-12-22T06:38:37.103Z,971.52
2017-12-22T06:39:37.104Z,971.55
2017-12-22T06:40:37.107Z,971.49
2017-12-22T06:41:37.109Z,971.56
2017-12-22T06:42:37.110Z,971.51
2017-12-22T06:43:37.112Z,971.55
2017-12-22T06:44:37.116Z,971.56
2017-12-22T06:45:37.117Z,971.55
2017-12-22T06:46:37.120Z,971.54
2017-12-22T06:47:37.122Z,971.58
2017-12-22T06:48:37.126Z,971.56
2017-12-22T06:49:37.125Z,971.59
2017-12-22T06:50:37.127Z,971.54
2017-12-22T06:51:37.130Z,971.53
2017-12-22T06:52:37.130Z,971.53
2017-12-22T06:53:37.134Z,971.51
2017-12-22T06:54:37.135Z,971.48
2017-12-22T06:55:37.137Z,971.49
2017-12-22T06:56:37.148Z,971.49
2017-12-22T06:57:37.148Z,971.45
2017-12-22T06:58:37.145Z,971.46
2017-12-22T06:59:37.147Z,971.42
2017-12-22T07:00:37.150Z,971.38
2017-12-22T07:01:37.153Z,971.39
2017-12-22T07:02:37.155Z,971.37
2017-12-22T07:03:37.155Z,971.37
2017-12-22T07:04:37.159Z,971.38
2017-12-22T07:05:37.163Z,971.40
2017-12-22T07:06:37.165Z,971.39
2017-12-22T07:07:37.167Z,971.36
2017-12-22T07:08:37.170Z,971.39
2017-12-22T07:09:37.173Z,971.43
2017-12-22T07:10:37.176Z,971.39
2017-12-22T07:11:37.178Z,971.43
2017-12-22T07:12:37.180Z,971.39
2017-12-22T07:13:37.183Z,971.39
2017-12-22T07:14:37.186Z,971.31
2017-12-22T07:15:37.187Z,971.33
2017-12-22T07:16:37.191Z,971.32
2017-12-22T07:17:37.194Z,971.30
2017-12-22T07:18:37.195Z,971.36
2017-12-22T07:19:37.197Z,971.36
2017-12-22T07:20:37.204Z,971.34
2017-12-22T07:21:37.203Z,971.35
2017-12-22T07:22:37.207Z,971.39
2017-12-22T07:23:37.209Z,971.38
2017-12-22T07:24:37.211Z,971.39
2017-12-22T07:25:37.214Z,971.38
2017-12-22T07:26:37.217Z,971.40
2017-12-22T07:27:37.219Z,971.41
2017-12-22T07:28:37.222Z,971.41
2017-12-22T07:29:37.225Z,971.46
2017-12-22T07:30:37.227Z,971.39
2017-12-22T07:31:37.231Z,971.42
2017-12-22T07:32:37.232Z,971.40
2017-12-22T07:33:37.237Z,971.39
2017-12-22T07:34:37.238Z,971.39
2017-12-22T07:35:37.242Z,971.44
2017-12-22T07:36:37.245Z,971.43
2017-12-22T07:37:37.246Z,971.44
2017-12-22T07:38:37.250Z,971.36
2017-12-22T07:39:37.253Z,971.40
2017-12-22T07:40:37.254Z,971.34
2017-12-22T07:41:37.258Z,971.38
2017-12-22T07:42:37.262Z,971.33
2017-12-22T07:43:37.261Z,971.37
2017-12-22T07:44:37.265Z,971.33
2017-12-22T07:45:37.270Z,971.35
2017-12-22T07:46:37.271Z,971.38
2017-12-22T07:47:37.273Z,971.50
2017-12-22T07:48:37.276Z,971.56
2017-12-22T07:49:37.279Z,971.52
2017-12-22T07:50:37.282Z,971.60
2017-12-22T07:51:37.284Z,971.60
2017-12-22T07:52:37.288Z,971.59
2017-12-22T07:53:37.292Z,971.60
2017-12-22T07:54:37.294Z,971.28
2017-12-22T07:55:37.294Z,971.43
2017-12-22T07:56:37.295Z,971.49
2017-12-22T07:57:37.315Z,971.42
2017-12-22T07:58:37.304Z,971.39
2017-12-22T07:59:37.306Z,971.38
2017-12-22T08:00:37.358Z,971.40
2017-12-22T08:01:37.313Z,971.41
2017-12-22T08:02:37.314Z,971.42
2017-12-22T08:03:37.316Z,971.45
2017-12-22T08:04:37.319Z,971.46
2017-12-22T08:05:37.325Z,971.47
2017-12-22T08:06:37.326Z,971.55
2017-12-22T08:07:37.329Z,971.50
2017-12-22T08:08:37.330Z,971.57
2017-12-22T08:09:37.333Z,971.51
2017-12-22T08:10:37.342Z,971.54
2017-12-22T08:11:37.338Z,971.55
2017-12-22T08:12:37.345Z,971.55
2017-12-22T08:13:37.344Z,971.61
2017-12-22T08:14:37.348Z,971.63
2017-12-22T08:15:37.349Z,971.63
2017-12-22T08:16:37.354Z,971.66
2017-12-22T08:17:37.355Z,971.65
2017-12-22T08:18:37.358Z,971.65
2017-12-22T08:19:37.367Z,971.69
2017-12-22T08:20:37.364Z,971.63
2017-12-22T08:21:37.367Z,971.64
2017-12-22T08:22:37.372Z,971.71
2017-12-22T08:23:37.371Z,971.65
2017-12-22T08:24:37.374Z,971.71
2017-12-22T08:25:37.377Z,971.79
2017-12-22T08:26:37.409Z,971.80
2017-12-22T08:27:37.382Z,971.79
2017-12-22T08:28:37.384Z,971.81
2017-12-22T08:29:37.389Z,971.80
2017-12-22T08:30:37.391Z,971.80
2017-12-22T08:31:37.398Z,971.75
2017-12-22T08:32:37.396Z,971.76
2017-12-22T08:33:37.400Z,971.77
2017-12-22T08:34:37.401Z,971.81
2017-12-22T08:35:37.404Z,971.81
2017-12-22T08:36:37.406Z,971.87
2017-12-22T08:37:37.408Z,971.84
2017-12-22T08:38:37.410Z,971.85
2017-12-22T08:39:37.414Z,971.82
2017-12-22T08:40:37.416Z,971.84
2017-12-22T08:41:37.418Z,971.81
2017-12-22T08:42:37.420Z,971.83
2017-12-22T08:43:37.424Z,971.80
2017-12-22T08:44:37.424Z,971.86
2017-12-22T08:45:37.430Z,971.83
2017-12-22T08:46:37.431Z,971.83
2017-12-22T08:47:37.431Z,971.85
2017-12-22T08:48:37.434Z,971.83
2017-12-22T08:49:37.438Z,971.86
2017-12-22T08:50:37.439Z,971.85
2017-12-22T08:51:37.441Z,971.82
2017-12-22T08:52:37.453Z,971.80
2017-12-22T08:53:37.448Z,971.79
2017-12-22T08:54:37.450Z,971.73
2017-12-22T08:55:37.449Z,971.72
2017-12-22T08:56:37.453Z,971.74
2017-12-22T08:57:37.455Z,971.73
2017-12-22T08:58:37.458Z,971.76
2017-12-22T08:59:37.458Z,971.76
2017-12-22T09:00:37.460Z,971.77
2017-12-22T09:01:37.465Z,971.75
2017-12-22T09:02:37.472Z,971.77
2017-12-22T09:03:37.468Z,971.78
2017-12-22T09:04:37.478Z,971.81
2017-12-22T09:05:37.492Z,971.82
2017-12-22T09:06:37.474Z,971.81
2017-12-22T09:07:37.481Z,971.85
2017-12-22T09:08:37.480Z,971.81
2017-12-22T09:09:37.482Z,971.84
2017-12-22T09:10:37.487Z,971.80
2017-12-22T09:12:37.490Z,971.76
2017-12-22T09:13:37.493Z,971.79
2017-12-22T09:14:37.502Z,971.84
2017-12-22T09:15:37.496Z,971.81
2017-12-22T09:16:37.500Z,971.82
2017-12-22T09:17:37.502Z,971.86
2017-12-22T09:18:37.506Z,971.88
2017-12-22T09:19:37.508Z,971.86
2017-12-22T09:20:37.514Z,971.84
2017-12-22T09:21:37.518Z,971.88
2017-12-22T09:22:37.518Z,971.87
2017-12-22T09:23:37.520Z,971.90
2017-12-22T09:24:37.527Z,971.89
2017-12-22T09:25:37.526Z,971.86
2017-12-22T09:26:37.529Z,971.87
2017-12-22T09:27:37.531Z,971.85
2017-12-22T09:28:37.533Z,971.83
2017-12-22T09:29:37.542Z,971.85
2017-12-22T09:30:37.541Z,971.83
2017-12-22T09:31:37.543Z,971.82
2017-12-22T09:32:37.546Z,971.83
2017-12-22T09:33:37.556Z,971.84
2017-12-22T09:34:37.558Z,971.84
2017-12-22T09:35:37.557Z,971.84
2017-12-22T09:36:37.559Z,971.81
2017-12-22T09:37:37.562Z,971.83
2017-12-22T09:38:37.565Z,971.82
2017-12-22T09:39:37.567Z,971.78
2017-12-22T09:40:37.579Z,971.81
2017-12-22T09:41:37.572Z,971.79
2017-12-22T09:42:37.625Z,971.78
2017-12-22T09:43:37.581Z,971.79
2017-12-22T09:44:37.582Z,971.74
2017-12-22T09:45:37.597Z,971.75
2017-12-22T09:46:37.587Z,971.75
2017-12-22T09:47:37.589Z,971.66
2017-12-22T09:48:37.592Z,971.63
2017-12-22T09:49:37.596Z,971.65
2017-12-22T09:50:37.601Z,971.68
2017-12-22T09:51:37.600Z,971.64
2017-12-22T09:52:37.604Z,971.67
2017-12-22T09:53:37.608Z,971.69
2017-12-22T09:54:37.614Z,971.64
2017-12-22T09:55:37.613Z,971.64
2017-12-22T09:56:37.617Z,971.64
2017-12-22T09:57:37.619Z,971.63
2017-12-22T09:58:37.623Z,971.61
2017-12-22T09:59:37.625Z,971.64
2017-12-22T10:00:37.633Z,971.63
2017-12-22T10:01:37.634Z,971.63
2017-12-22T10:02:37.637Z,971.64
2017-12-22T10:03:37.637Z,971.62
2017-12-22T10:04:37.641Z,971.62
2017-12-22T10:05:37.643Z,971.64
2017-12-22T10:06:37.646Z,971.63
2017-12-22T10:07:37.650Z,971.58
2017-12-22T10:08:37.651Z,971.53
2017-12-22T10:09:37.656Z,971.76
2017-12-22T10:10:37.657Z,971.74
2017-12-22T10:11:37.661Z,971.76
2017-12-22T10:12:37.665Z,971.71
2017-12-22T10:13:37.665Z,971.68
2017-12-22T10:14:37.670Z,971.70
2017-12-22T10:15:37.673Z,971.69
2017-12-22T10:16:37.734Z,971.68
2017-12-22T10:17:37.691Z,971.64
2017-12-22T10:18:37.682Z,971.66
2017-12-22T10:19:37.686Z,971.63
2017-12-22T10:20:37.689Z,971.60
2017-12-22T10:21:37.691Z,971.57
2017-12-22T10:22:37.696Z,971.58
2017-12-22T10:23:37.697Z,971.62
2017-12-22T10:24:37.700Z,971.56
2017-12-22T10:25:37.704Z,971.59
2017-12-22T10:26:37.706Z,971.56
2017-12-22T10:27:37.709Z,971.56
2017-12-22T10:28:37.711Z,971.59
2017-12-22T10:29:37.716Z,971.56
2017-12-22T10:30:37.732Z,971.58
2017-12-22T10:31:37.719Z,971.56
2017-12-22T10:32:37.722Z,971.57
2017-12-22T10:33:37.725Z,971.56
2017-12-22T10:34:37.727Z,971.52
2017-12-22T10:35:37.729Z,971.53
2017-12-22T10:36:37.756Z,971.48
2017-12-22T10:37:37.735Z,971.50
2017-12-22T10:38:37.738Z,971.43
2017-12-22T10:39:37.740Z,971.45
2017-12-22T10:40:37.743Z,971.46
2017-12-22T10:41:37.746Z,971.46
2017-12-22T10:42:37.749Z,971.44
2017-12-22T10:43:37.751Z,971.48
2017-12-22T10:44:37.753Z,971.45
2017-12-22T10:45:37.756Z,971.46
2017-12-22T10:46:37.759Z,971.44
2017-12-22T10:47:37.761Z,971.38
2017-12-22T10:48:37.763Z,971.43
2017-12-22T10:49:37.764Z,971.43
2017-12-22T10:50:37.768Z,971.39
2017-12-22T10:51:37.769Z,971.44
2017-12-22T10:52:37.772Z,971.42
2017-12-22T10:53:37.776Z,971.41
2017-12-22T10:54:37.777Z,971.31
2017-12-22T10:55:37.780Z,971.29
2017-12-22T10:56:37.781Z,971.42
2017-12-22T10:57:37.785Z,971.46
2017-12-22T10:58:37.788Z,971.43
2017-12-22T10:59:37.789Z,971.45
2017-12-22T11:00:37.792Z,971.49
2017-12-22T11:01:37.793Z,971.41
2017-12-22T11:02:37.798Z,971.44
2017-12-22T11:03:37.802Z,971.39
2017-12-22T11:04:37.802Z,971.39
2017-12-22T11:05:37.804Z,971.40
2017-12-22T11:06:37.807Z,971.39
2017-12-22T11:07:37.809Z,971.35
2017-12-22T11:08:37.812Z,971.40
2017-12-22T11:09:37.813Z,971.37
2017-12-22T11:10:37.815Z,971.38
2017-12-22T11:11:37.817Z,971.39
2017-12-22T11:12:37.820Z,971.40
2017-12-22T11:13:37.824Z,971.38
2017-12-22T11:14:37.825Z,971.37
2017-12-22T11:15:37.824Z,971.33
2017-12-22T11:16:37.827Z,971.25
2017-12-22T11:17:37.831Z,971.24
2017-12-22T11:18:37.834Z,971.18
2017-12-22T11:19:37.837Z,971.13
2017-12-22T11:20:37.837Z,971.21
2017-12-22T11:21:37.839Z,971.21
2017-12-22T11:22:37.841Z,971.20
2017-12-22T11:23:37.845Z,971.19
2017-12-22T11:24:37.844Z,971.14
2017-12-22T11:25:37.846Z,971.11
2017-12-22T11:26:37.850Z,971.11
2017-12-22T11:27:37.851Z,971.22
2017-12-22T11:28:37.851Z,971.16
2017-12-22T11:29:37.854Z,971.14
2017-12-22T11:30:37.857Z,971.13
2017-12-22T11:31:37.859Z,971.14
2017-12-22T11:32:37.861Z,971.02
2017-12-22T11:33:37.864Z,971.06
2017-12-22T11:34:37.867Z,970.99
2017-12-22T11:35:37.892Z,971.24
2017-12-22T11:36:37.871Z,971.23
2017-12-22T11:37:37.875Z,971.23
2017-12-22T11:38:37.885Z,971.20
2017-12-22T11:39:37.880Z,971.18
2017-12-22T11:40:37.884Z,971.20
2017-12-22T11:41:37.885Z,971.21
2017-12-22T11:42:37.887Z,971.20
2017-12-22T11:43:37.891Z,971.18
2017-12-22T11:44:37.893Z,971.20
2017-12-22T11:45:37.898Z,971.17
2017-12-22T11:46:37.901Z,971.12
2017-12-22T11:47:37.902Z,971.18
2017-12-22T11:48:37.905Z,971.12
2017-12-22T11:49:37.909Z,971.12
2017-12-22T11:50:37.914Z,971.12
2017-12-22T11:51:37.922Z,971.13
2017-12-22T11:52:37.920Z,971.14
2017-12-22T11:53:37.921Z,971.03
2017-12-22T11:54:37.924Z,970.99
2017-12-22T11:55:37.927Z,970.96
2017-12-22T11:56:37.929Z,970.97
2017-12-22T11:57:37.933Z,970.97
2017-12-22T11:58:37.937Z,970.97
2017-12-22T11:59:37.938Z,970.98
2017-12-22T12:00:37.941Z,970.95
2017-12-22T12:01:37.946Z,970.98
2017-12-22T12:02:37.947Z,970.98
2017-12-22T12:03:37.951Z,970.95
2017-12-22T12:04:37.955Z,970.86
2017-12-22T12:05:37.957Z,970.82
2017-12-22T12:06:37.966Z,970.81
2017-12-22T12:07:37.969Z,970.86
2017-12-22T12:08:37.966Z,970.81
2017-12-22T12:09:37.998Z,970.85
2017-12-22T12:10:37.973Z,970.79
2017-12-22T12:11:37.974Z,970.84
2017-12-22T12:12:37.978Z,970.75
2017-12-22T12:13:37.981Z,970.76
2017-12-22T12:14:37.985Z,970.75
2017-12-22T12:15:38.011Z,970.72
2017-12-22T12:16:37.992Z,970.74
2017-12-22T12:17:37.990Z,970.72
2017-12-22T12:18:37.995Z,970.71
2017-12-22T12:19:37.998Z,970.73
2017-12-22T12:20:38.000Z,970.72
2017-12-22T12:21:38.005Z,970.68
2017-12-22T12:22:38.007Z,970.72
2017-12-22T12:23:38.010Z,970.69
2017-12-22T12:24:38.014Z,970.63
2017-12-22T12:25:38.016Z,970.65
2017-12-22T12:26:38.020Z,970.67
2017-12-22T12:27:38.019Z,970.68
2017-12-22T12:28:38.026Z,970.66
2017-12-22T12:29:38.027Z,970.61